Time;durP1;ratioP1;P1;durP2;ratioP2;P2;SDS_P1;SDS_P2;PMS_P1;PMS_P2;Temp;Humidity;BMP_temperature;BMP_pressure;BME280_temperature;BME280_humidity;BME280_pressure;Samples;Min_cycle;Max_cycle;Signal;HPM_P1;HPM_P2
2023/11/30 00:00:48;;;;;;;;;;;2.80;1.00;;;;;;5013739;28;19909;-74
2023/11/30 00:03:24;;;;;;;;;;;2.80;1.00;;;;;;5016526;28;19924;-73
2023/11/30 00:05:49;;;;;;;;;;;2.90;1.00;;;;;;5010769;28;20064;-73
2023/11/30 00:08:15;;;;;;;;;;;2.90;1.00;;;;;;5037749;28;19952;-74
2023/11/30 00:14:00;;;;;;;;;;;2.90;1.00;;;;;;5019455;28;20399;-77
2023/11/30 00:19:10;;;;;;;;;;;2.90;1.00;;;;;;5005162;28;19983;-77
2023/11/30 00:24:54;;;;;;;;;;;2.90;1.00;;;;;;5017110;28;19963;-77
2023/11/30 00:30:24;;;;;;;;;;;3.00;1.00;;;;;;5016575;28;20072;-77
2023/11/30 00:32:49;;;;;;;;;;;3.00;1.00;;;;;;5016974;28;19909;-77
2023/11/30 00:38:12;;;;;;;;;;;3.10;1.00;;;;;;5018377;28;19920;-77
2023/11/30 00:40:39;;;;;;;;;;;3.10;1.00;;;;;;5011324;28;19921;-74
2023/11/30 00:46:14;;;;;;;;;;;;;;;;;;5016911;28;20013;-77
2023/11/30 00:51:42;;;;;;;;;;;3.20;1.00;;;;;;5017026;28;20324;-77
2023/11/30 00:54:36;;;;;;;;;;;3.30;1.00;;;;;;5016625;28;19918;-77
2023/11/30 00:57:24;;;;;;;;;;;3.20;1.00;;;;;;5017475;28;19910;-77
2023/11/30 01:03:00;;;;;;;;;;;3.30;1.00;;;;;;5023669;28;19924;-78
2023/11/30 01:08:54;;;;;;;;;;;3.30;1.00;;;;;;5016322;28;19932;-77
2023/11/30 01:11:24;;;;;;;;;;;3.30;1.00;;;;;;5016816;28;19920;-77
2023/11/30 01:13:54;;;;;;;;;;;;;;;;;;5020027;28;19917;-77
2023/11/30 01:16:20;;;;;;;;;;;;;;;;;;5022165;28;19916;-77
2023/11/30 01:19:18;;;;;;;;;;;3.40;1.00;;;;;;5016111;28;19916;-77
2023/11/30 01:28:12;;;;;;;;;;;3.40;1.00;;;;;;5005118;28;19959;-78
2023/11/30 01:33:40;;;;;;;;;;;3.40;1.00;;;;;;5016260;28;19916;-77
2023/11/30 01:36:36;;;;;;;;;;;3.40;1.00;;;;;;5015145;28;19988;-77
2023/11/30 01:39:06;;;;;;;;;;;3.40;1.00;;;;;;5015934;28;19909;-77
2023/11/30 01:41:32;;;;;;;;;;;;;;;;;;5009239;28;19918;-74
2023/11/30 01:43:58;;;;;;;;;;;3.40;1.00;;;;;;5010103;28;19929;-73
2023/11/30 01:46:23;;;;;;;;;;;3.30;1.00;;;;;;5026395;28;19909;-74
2023/11/30 01:48:54;;;;;;;;;;;3.30;1.00;;;;;;5030353;28;20304;-74
2023/11/30 01:51:20;;;;;;;;;;;3.10;1.00;;;;;;5026485;28;19944;-73
2023/11/30 01:53:46;;;;;;;;;;;3.20;1.00;;;;;;5020947;28;19960;-73
2023/11/30 01:56:11;;;;;;;;;;;3.10;1.00;;;;;;5015930;28;19918;-73
2023/11/30 01:58:37;;;;;;;;;;;3.10;1.00;;;;;;5016430;28;19968;-74
2023/11/30 02:01:03;;;;;;;;;;;3.10;1.00;;;;;;5015710;28;19952;-73
2023/11/30 02:03:29;;;;;;;;;;;3.00;1.00;;;;;;5018183;28;19917;-73
2023/11/30 02:05:55;;;;;;;;;;;2.90;1.00;;;;;;5023531;28;19910;-73
2023/11/30 02:08:20;;;;;;;;;;;2.90;1.00;;;;;;5026758;28;20276;-73
2023/11/30 02:10:46;;;;;;;;;;;2.90;1.00;;;;;;5026075;28;19979;-73
2023/11/30 02:13:11;;;;;;;;;;;3.00;1.00;;;;;;5017145;28;19920;-73
2023/11/30 02:15:37;;;;;;;;;;;3.00;1.00;;;;;;5015581;28;20411;-73
2023/11/30 02:18:03;;;;;;;;;;;3.00;1.00;;;;;;5003440;28;19920;-74
2023/11/30 02:20:28;;;;;;;;;;;3.10;1.00;;;;;;5015230;28;20269;-73
2023/11/30 02:23:12;;;;;;;;;;;3.10;1.00;;;;;;5015269;28;19995;-74
2023/11/30 02:25:54;;;;;;;;;;;3.10;1.00;;;;;;5014522;28;20016;-73
2023/11/30 02:28:36;;;;;;;;;;;3.10;1.00;;;;;;4996321;28;19910;-77
2023/11/30 02:31:30;;;;;;;;;;;3.10;1.00;;;;;;4998465;28;19909;-77
2023/11/30 02:36:40;;;;;;;;;;;3.20;1.00;;;;;;5019881;28;19961;-77
2023/11/30 02:39:18;;;;;;;;;;;3.20;1.00;;;;;;5014791;28;20321;-77
2023/11/30 02:41:43;;;;;;;;;;;3.20;1.00;;;;;;5015060;28;19910;-73
2023/11/30 02:44:24;;;;;;;;;;;3.20;1.00;;;;;;5015082;28;19921;-77
2023/11/30 02:47:08;;;;;;;;;;;;;;;;;;5015087;28;20271;-77
2023/11/30 02:52:36;;;;;;;;;;;3.20;1.00;;;;;;5012814;28;19917;-78
2023/11/30 02:57:47;;;;;;;;;;;3.30;1.00;;;;;;5015083;28;19917;-73
2023/11/30 03:00:13;;;;;;;;;;;3.30;1.00;;;;;;5014686;28;19914;-74
2023/11/30 03:02:54;;;;;;;;;;;3.30;1.00;;;;;;5014778;28;19971;-74
2023/11/30 03:05:20;;;;;;;;;;;;;;;;;;5019690;28;19913;-74
2023/11/30 03:07:45;;;;;;;;;;;3.30;1.00;;;;;;5030238;28;19921;-73
2023/11/30 03:10:11;;;;;;;;;;;3.30;1.00;;;;;;5021493;28;19919;-73
2023/11/30 03:12:42;;;;;;;;;;;3.30;1.00;;;;;;5017304;28;19910;-73
2023/11/30 03:15:08;;;;;;;;;;;3.40;1.00;;;;;;5020948;28;19919;-74
2023/11/30 03:17:36;;;;;;;;;;;3.30;1.00;;;;;;5028986;28;20004;-73
2023/11/30 03:20:01;;;;;;;;;;;3.30;1.00;;;;;;5010916;28;19916;-73
2023/11/30 03:22:27;;;;;;;;;;;3.40;1.00;;;;;;5000869;28;19921;-73
2023/11/30 03:24:54;;;;;;;;;;;3.30;1.00;;;;;;5029665;28;19909;-74
2023/11/30 03:27:19;;;;;;;;;;;3.40;1.00;;;;;;5011682;28;19996;-73
2023/11/30 03:29:45;;;;;;;;;;;3.40;1.00;;;;;;5013393;28;19968;-73
2023/11/30 03:32:18;;;;;;;;;;;3.40;1.00;;;;;;5017041;28;20254;-73
2023/11/30 03:34:48;;;;;;;;;;;3.40;1.00;;;;;;5014486;28;19916;-73
2023/11/30 03:37:18;;;;;;;;;;;3.40;1.00;;;;;;5014837;28;19921;-74
2023/11/30 03:39:43;;;;;;;;;;;3.50;1.00;;;;;;5019752;28;19913;-74
2023/11/30 03:42:12;;;;;;;;;;;3.40;1.00;;;;;;5018484;28;19909;-74
2023/11/30 03:44:48;;;;;;;;;;;3.50;1.00;;;;;;5015851;28;19917;-73
2023/11/30 03:47:24;;;;;;;;;;;3.50;1.00;;;;;;5027816;28;19955;-73
2023/11/30 03:49:49;;;;;;;;;;;3.50;1.00;;;;;;5029382;28;19918;-74
2023/11/30 03:52:15;;;;;;;;;;;3.50;1.00;;;;;;5018501;28;19980;-73
2023/11/30 03:54:42;;;;;;;;;;;3.50;1.00;;;;;;5018280;28;19917;-74
2023/11/30 03:57:08;;;;;;;;;;;;;;;;;;5020191;28;19972;-74
2023/11/30 04:02:36;;;;;;;;;;;3.50;1.00;;;;;;5007221;28;19960;-77
2023/11/30 04:05:03;;;;;;;;;;;3.50;1.00;;;;;;5017884;28;19913;-77
2023/11/30 04:13:35;;;;;;;;;;;;;;;;;;5018148;28;19920;-77
2023/11/30 04:16:06;;;;;;;;;;;3.60;1.00;;;;;;5013778;28;20012;-77
2023/11/30 04:19:06;;;;;;;;;;;3.60;1.00;;;;;;5012957;28;19910;-77
2023/11/30 04:28:06;;;;;;;;;;;3.40;1.00;;;;;;5017169;28;19944;-77
2023/11/30 04:33:34;;;;;;;;;;;3.50;1.00;;;;;;5012137;28;20016;-77
2023/11/30 04:39:20;;;;;;;;;;;3.50;1.00;;;;;;5013082;28;19921;-77
2023/11/30 04:41:49;;;;;;;;;;;3.50;1.00;;;;;;5017024;28;20319;-78
2023/11/30 04:44:15;;;;;;;;;;;3.40;1.00;;;;;;5023064;28;19920;-73
2023/11/30 04:46:40;;;;;;;;;;;3.40;1.00;;;;;;5018499;28;19914;-73
2023/11/30 04:49:06;;;;;;;;;;;3.40;1.00;;;;;;5021085;28;19917;-73
2023/11/30 04:51:31;;;;;;;;;;;3.40;1.00;;;;;;5016851;28;20284;-73
2023/11/30 04:53:57;;;;;;;;;;;3.40;1.00;;;;;;5016919;28;19913;-73
2023/11/30 04:56:23;;;;;;;;;;;;;;;;;;5016479;28;20248;-72
2023/11/30 04:58:49;;;;;;;;;;;;;;;;;;5016760;28;19910;-73
2023/11/30 05:01:15;;;;;;;;;;;3.50;1.00;;;;;;5026590;28;19915;-73
2023/11/30 05:03:42;;;;;;;;;;;3.50;1.00;;;;;;5019766;28;19917;-72
2023/11/30 05:06:12;;;;;;;;;;;3.50;1.00;;;;;;5016754;28;19914;-73
2023/11/30 05:08:48;;;;;;;;;;;3.50;1.00;;;;;;5009415;28;19975;-73
2023/11/30 05:14:30;;;;;;;;;;;3.40;1.00;;;;;;5011839;28;19920;-76
2023/11/30 05:17:06;;;;;;;;;;;3.40;1.00;;;;;;5016624;28;19967;-76
2023/11/30 05:22:34;;;;;;;;;;;3.50;1.00;;;;;;5003567;28;19920;-75
2023/11/30 05:25:07;;;;;;;;;;;3.50;1.00;;;;;;5015996;28;20260;-75
2023/11/30 05:27:36;;;;;;;;;;;3.50;1.00;;;;;;5016628;28;19913;-75
2023/11/30 05:38:52;;;;;;;;;;;3.50;1.00;;;;;;5015783;28;19917;-80
2023/11/30 05:44:19;;;;;;;;;;;3.60;1.00;;;;;;5016176;28;19920;-81
2023/11/30 05:47:08;;;;;;;;;;;3.60;1.00;;;;;;4998260;28;19921;-80
2023/11/30 05:49:33;;;;;;;;;;;3.50;1.00;;;;;;5016035;28;19918;-82
2023/11/30 06:01:08;;;;;;;;;;;;;;;;;;5006893;28;19910;-72
2023/11/30 06:03:36;;;;;;;;;;;3.60;1.00;;;;;;5027023;28;19940;-73
2023/11/30 06:06:02;;;;;;;;;;;3.60;1.00;;;;;;5025542;28;19932;-73
2023/11/30 06:08:28;;;;;;;;;;;;;;;;;;5016056;28;20000;-73
2023/11/30 06:10:53;;;;;;;;;;;3.60;1.00;;;;;;5027100;28;20118;-73
2023/11/30 06:13:19;;;;;;;;;;;3.60;1.00;;;;;;5016472;28;20012;-73
2023/11/30 06:15:45;;;;;;;;;;;3.60;1.00;;;;;;5019524;28;19917;-79
2023/11/30 06:21:13;;;;;;;;;;;3.60;1.00;;;;;;5015452;28;19967;-79
2023/11/30 06:29:45;;;;;;;;;;;3.50;1.00;;;;;;5013815;28;19920;-79
2023/11/30 06:35:13;;;;;;;;;;;3.50;1.00;;;;;;5011023;28;19920;-79
2023/11/30 06:40:42;;;;;;;;;;;3.50;1.00;;;;;;5014589;28;20001;-79
2023/11/30 06:46:18;;;;;;;;;;;3.50;1.00;;;;;;5025253;28;20387;-73
2023/11/30 06:48:51;;;;;;;;;;;3.50;1.00;;;;;;5015408;28;20328;-77
2023/11/30 06:51:24;;;;;;;;;;;3.50;1.00;;;;;;5017734;28;19963;-76
2023/11/30 06:53:54;;;;;;;;;;;3.50;1.00;;;;;;5005977;28;19963;-76
2023/11/30 06:59:43;;;;;;;;;;;3.60;1.00;;;;;;4998482;28;19917;-77
2023/11/30 07:02:09;;;;;;;;;;;3.60;1.00;;;;;;5014124;28;19924;-77
2023/11/30 07:07:48;;;;;;;;;;;;;;;;;;5012248;28;19920;-75
2023/11/30 07:10:14;;;;;;;;;;;3.50;1.00;;;;;;5000841;28;19909;-77
2023/11/30 07:12:48;;;;;;;;;;;;;;;;;;5030016;28;19961;-76
2023/11/30 07:15:13;;;;;;;;;;;3.50;1.00;;;;;;5013398;28;19913;-79
2023/11/30 07:20:42;;;;;;;;;;;3.50;1.00;;;;;;5018367;28;19939;-83
2023/11/30 07:23:18;;;;;;;;;;;3.50;1.00;;;;;;4991750;28;20350;-79
2023/11/30 07:28:48;;;;;;;;;;;3.50;1.00;;;;;;5006919;28;19920;-79
2023/11/30 07:31:18;;;;;;;;;;;3.50;1.00;;;;;;4998930;28;19910;-76
2023/11/30 07:33:54;;;;;;;;;;;3.50;1.00;;;;;;4994843;28;19914;-78
2023/11/30 07:36:19;;;;;;;;;;;3.50;1.00;;;;;;5019790;28;20000;-76
2023/11/30 07:38:49;;;;;;;;;;;3.60;1.00;;;;;;5013164;28;20044;-76
2023/11/30 07:41:16;;;;;;;;;;;;;;;;;;5010882;28;19937;-77
2023/11/30 07:43:54;;;;;;;;;;;3.60;1.00;;;;;;5013848;28;19925;-77
2023/11/30 07:46:19;;;;;;;;;;;3.60;1.00;;;;;;5013435;28;19921;-76
2023/11/30 07:48:54;;;;;;;;;;;3.70;1.00;;;;;;5014015;28;19914;-76
2023/11/30 07:54:24;;;;;;;;;;;3.70;1.00;;;;;;5018328;28;20070;-76
2023/11/30 07:57:12;;;;;;;;;;;3.70;1.00;;;;;;5018667;28;19924;-77
2023/11/30 07:59:54;;;;;;;;;;;3.70;1.00;;;;;;5015893;28;19913;-78
2023/11/30 08:02:24;;;;;;;;;;;3.70;1.00;;;;;;5008468;28;19921;-80
2023/11/30 08:04:49;;;;;;;;;;;3.70;1.00;;;;;;5024069;28;19919;-80
2023/11/30 08:07:18;;;;;;;;;;;3.70;1.00;;;;;;5016703;28;19909;-80
2023/11/30 08:10:00;;;;;;;;;;;3.70;1.00;;;;;;5039707;28;20004;-80
2023/11/30 08:13:00;;;;;;;;;;;3.80;1.00;;;;;;5019753;28;19913;-88
2023/11/30 08:18:31;;;;;;;;;;;3.80;1.00;;;;;;5009570;28;19952;-81
2023/11/30 08:24:13;;;;;;;;;;;4.00;1.00;;;;;;5000671;28;19973;-82
2023/11/30 08:26:38;;;;;;;;;;;4.00;1.00;;;;;;5012239;28;19919;-81
2023/11/30 08:32:13;;;;;;;;;;;4.30;1.00;;;;;;5014073;28;19972;-81
2023/11/30 08:34:42;;;;;;;;;;;4.40;1.00;;;;;;5021779;28;19921;-81
2023/11/30 08:37:36;;;;;;;;;;;4.40;1.00;;;;;;5012261;28;19972;-81
2023/11/30 08:40:03;;;;;;;;;;;4.40;1.00;;;;;;5015899;28;19914;-81
2023/11/30 08:42:37;;;;;;;;;;;;;;;;;;5007270;28;20394;-82
2023/11/30 08:45:12;;;;;;;;;;;;;;;;;;5015859;28;20008;-83
2023/11/30 08:47:38;;;;;;;;;;;4.70;1.00;;;;;;5035502;28;19968;-74
2023/11/30 08:50:06;;;;;;;;;;;4.80;1.00;;;;;;5015957;28;20424;-74
2023/11/30 08:52:32;;;;;;;;;;;4.90;1.00;;;;;;5016663;28;19914;-74
2023/11/30 08:54:58;;;;;;;;;;;4.90;1.00;;;;;;5021969;28;19913;-74
2023/11/30 08:57:26;;;;;;;;;;;5.10;1.00;;;;;;5017515;28;20293;-74
2023/11/30 09:00:00;;;;;;;;;;;5.10;1.00;;;;;;5012017;28;19921;-75
2023/11/30 09:05:42;;;;;;;;;;;5.30;1.00;;;;;;5016201;28;20339;-82
2023/11/30 09:08:12;;;;;;;;;;;5.30;1.00;;;;;;5016348;28;19910;-82
2023/11/30 09:10:43;;;;;;;;;;;5.30;1.00;;;;;;4986582;28;19910;-82
2023/11/30 09:13:42;;;;;;;;;;;5.30;1.00;;;;;;5020713;28;19917;-83
2023/11/30 09:16:12;;;;;;;;;;;5.30;1.00;;;;;;5024549;28;19913;-83
2023/11/30 09:21:41;;;;;;;;;;;5.40;1.00;;;;;;5015607;28;19916;-83
2023/11/30 09:24:12;;;;;;;;;;;5.30;1.00;;;;;;5026183;28;19921;-85
2023/11/30 09:27:12;;;;;;;;;;;5.40;1.00;;;;;;4997448;28;19921;-83
2023/11/30 09:29:42;;;;;;;;;;;5.40;1.00;;;;;;5016888;28;20004;-83
2023/11/30 09:32:12;;;;;;;;;;;5.40;1.00;;;;;;5007326;28;19961;-75
2023/11/30 09:34:38;;;;;;;;;;;5.40;1.00;;;;;;5013731;28;19921;-75
2023/11/30 09:37:04;;;;;;;;;;;;;;;;;;5013219;28;19928;-75
2023/11/30 09:39:44;;;;;;;;;;;5.60;1.00;;;;;;5015163;28;20348;-76
2023/11/30 09:42:16;;;;;;;;;;;5.50;1.00;;;;;;5019134;28;19961;-75
2023/11/30 09:44:43;;;;;;;;;;;5.60;1.00;;;;;;5022228;28;19984;-75
2023/11/30 09:47:09;;;;;;;;;;;5.50;1.00;;;;;;5014123;28;19922;-75
2023/11/30 09:49:48;;;;;;;;;;;;;;;;;;5017048;28;20008;-74
2023/11/30 09:52:13;;;;;;;;;;;5.60;1.00;;;;;;5017831;28;19996;-75
2023/11/30 09:54:42;;;;;;;;;;;5.60;1.00;;;;;;5016386;28;20012;-75
2023/11/30 09:57:13;;;;;;;;;;;;;;;;;;5010855;28;19916;-86
2023/11/30 09:59:42;;;;;;;;;;;;;;;;;;5016496;28;19979;-74
2023/11/30 10:02:12;;;;;;;;;;;5.80;1.00;;;;;;5015543;28;19945;-82
2023/11/30 10:05:00;;;;;;;;;;;5.90;1.00;;;;;;5010074;28;19925;-82
2023/11/30 10:07:42;;;;;;;;;;;5.90;1.00;;;;;;5024157;28;19915;-83
2023/11/30 10:10:18;;;;;;;;;;;5.90;1.00;;;;;;4992952;28;19960;-82
2023/11/30 10:16:12;;;;;;;;;;;6.20;1.00;;;;;;5009681;28;19921;-83
2023/11/30 10:18:38;;;;;;;;;;;;;;;;;;5009844;28;19921;-72
2023/11/30 10:21:07;;;;;;;;;;;6.60;1.00;;;;;;5014511;28;19913;-73
2023/11/30 10:23:33;;;;;;;;;;;6.80;1.00;;;;;;5014216;28;19917;-74
2023/11/30 10:32:13;;;;;;;;;;;6.90;1.00;;;;;;5016813;28;19963;-81
2023/11/30 10:35:12;;;;;;;;;;;6.80;1.00;;;;;;5008703;28;19914;-83
2023/11/30 10:37:57;;;;;;;;;;;6.90;1.00;;;;;;5009011;28;20376;-79
2023/11/30 10:40:42;;;;;;;;;;;6.90;1.00;;;;;;5021359;28;19935;-80
2023/11/30 10:43:08;;;;;;;;;;;6.90;1.00;;;;;;5023500;28;19917;-73
2023/11/30 10:45:39;;;;;;;;;;;6.90;1.00;;;;;;5014941;28;19916;-74
2023/11/30 10:48:06;;;;;;;;;;;7.00;1.00;;;;;;5017543;28;20313;-72
2023/11/30 10:50:32;;;;;;;;;;;7.10;1.00;;;;;;5014415;28;19967;-72
2023/11/30 10:52:58;;;;;;;;;;;7.20;1.00;;;;;;5011894;28;20352;-73
2023/11/30 10:55:24;;;;;;;;;;;;;;;;;;5014675;28;19909;-73
2023/11/30 10:57:54;;;;;;;;;;;;;;;;;;5014565;28;19917;-73
2023/11/30 11:00:23;;;;;;;;;;;7.40;1.00;;;;;;5020088;28;19919;-74
2023/11/30 11:06:02;;;;;;;;;;;7.40;1.00;;;;;;5010920;28;20379;-78
2023/11/30 11:08:28;;;;;;;;;;;7.40;1.00;;;;;;5014001;28;19979;-78
2023/11/30 11:11:00;;;;;;;;;;;;;;;;;;5014420;28;19914;-78
2023/11/30 11:13:46;;;;;;;;;;;7.50;1.00;;;;;;5014947;28;19913;-77
2023/11/30 11:16:12;;;;;;;;;;;7.50;1.00;;;;;;5013015;28;19909;-78
2023/11/30 11:19:12;;;;;;;;;;;7.70;1.00;;;;;;5014533;28;19925;-78
2023/11/30 11:24:48;;;;;;;;;;;7.90;1.00;;;;;;5007236;28;19928;-78
2023/11/30 11:27:42;;;;;;;;;;;8.10;1.00;;;;;;5010420;28;20296;-78
2023/11/30 11:30:14;;;;;;;;;;;8.10;1.00;;;;;;5019772;28;19913;-78
2023/11/30 11:32:40;;;;;;;;;;;8.10;1.00;;;;;;5001627;28;19929;-77
2023/11/30 11:35:12;;;;;;;;;;;8.20;1.00;;;;;;5013833;28;19956;-77
2023/11/30 11:38:12;;;;;;;;;;;8.10;1.00;;;;;;5013609;28;20425;-77
2023/11/30 11:41:12;;;;;;;;;;;8.20;1.00;;;;;;5013251;28;19916;-77
2023/11/30 11:43:42;;;;;;;;;;;8.20;1.00;;;;;;5010832;28;19917;-77
2023/11/30 11:46:08;;;;;;;;;;;8.10;1.00;;;;;;5020024;28;19921;-77
2023/11/30 11:49:07;;;;;;;;;;;8.10;1.00;;;;;;4993168;28;19914;-77
2023/11/30 11:51:43;;;;;;;;;;;8.20;1.00;;;;;;5006969;28;19918;-78
2023/11/30 11:54:16;;;;;;;;;;;8.20;1.00;;;;;;5014183;28;19913;-77
2023/11/30 11:59:45;;;;;;;;;;;;;;;;;;5010867;28;19917;-77
2023/11/30 12:02:17;;;;;;;;;;;7.80;1.00;;;;;;5015358;28;19913;-72
2023/11/30 12:04:43;;;;;;;;;;;7.90;1.00;;;;;;5012456;28;19925;-73
2023/11/30 12:07:13;;;;;;;;;;;7.90;1.00;;;;;;5016317;28;19932;-73
2023/11/30 12:09:39;;;;;;;;;;;8.00;1.00;;;;;;5016594;28;19985;-72
2023/11/30 12:12:12;;;;;;;;;;;8.00;1.00;;;;;;5015975;28;19917;-72
2023/11/30 12:14:38;;;;;;;;;;;8.00;1.00;;;;;;5017426;28;19913;-72
2023/11/30 12:17:03;;;;;;;;;;;8.00;1.00;;;;;;5020556;28;19918;-72
2023/11/30 12:19:36;;;;;;;;;;;;;;;;;;5017524;28;20340;-76
2023/11/30 12:22:06;;;;;;;;;;;7.80;1.00;;;;;;5019254;28;19922;-75
2023/11/30 12:24:32;;;;;;;;;;;7.70;1.00;;;;;;5008244;28;20027;-74
2023/11/30 12:27:12;;;;;;;;;;;7.60;1.00;;;;;;5007003;28;20380;-75
2023/11/30 12:29:42;;;;;;;;;;;7.60;1.00;;;;;;5013773;28;19914;-77
2023/11/30 12:32:39;;;;;;;;;;;7.70;1.00;;;;;;5017000;28;19913;-78
2023/11/30 12:35:12;;;;;;;;;;;;;;;;;;5016906;28;19909;-78
2023/11/30 12:37:42;;;;;;;;;;;7.80;1.00;;;;;;5018393;28;20273;-77
2023/11/30 12:40:13;;;;;;;;;;;7.90;1.00;;;;;;5016349;28;19920;-78
2023/11/30 12:42:48;;;;;;;;;;;;;;;;;;5016555;28;19924;-77
2023/11/30 12:45:42;;;;;;;;;;;7.80;1.00;;;;;;5018390;28;19914;-77
2023/11/30 12:48:08;;;;;;;;;;;;;;;;;;5013403;28;19948;-76
2023/11/30 12:50:34;;;;;;;;;;;7.70;1.00;;;;;;5011602;28;20412;-71
2023/11/30 12:52:59;;;;;;;;;;;7.80;1.00;;;;;;5015409;28;19917;-72
2023/11/30 12:55:25;;;;;;;;;;;;;;;;;;4999345;28;19984;-71
2023/11/30 12:57:51;;;;;;;;;;;8.00;1.00;;;;;;5015532;28;19913;-72
2023/11/30 13:00:18;;;;;;;;;;;8.10;1.00;;;;;;5017256;28;19913;-72
2023/11/30 13:02:47;;;;;;;;;;;;;;;;;;5028658;28;19918;-72
2023/11/30 13:05:13;;;;;;;;;;;;;;;;;;5015515;28;20340;-71
2023/11/30 13:07:41;;;;;;;;;;;8.20;1.00;;;;;;5013192;28;19955;-71
2023/11/30 13:10:08;;;;;;;;;;;8.20;1.00;;;;;;5016820;28;19920;-72
2023/11/30 13:12:36;;;;;;;;;;;8.30;1.00;;;;;;5016006;28;19909;-72
2023/11/30 13:15:10;;;;;;;;;;;8.20;1.00;;;;;;5017524;28;19913;-73
2023/11/30 13:17:35;;;;;;;;;;;8.30;1.00;;;;;;5016327;28;19917;-72
2023/11/30 13:20:04;;;;;;;;;;;8.20;1.00;;;;;;5006371;28;19968;-72
2023/11/30 13:22:30;;;;;;;;;;;8.20;1.00;;;;;;5015857;28;19916;-71
2023/11/30 13:24:55;;;;;;;;;;;8.20;1.00;;;;;;5005858;28;19921;-71
2023/11/30 13:27:21;;;;;;;;;;;8.30;1.00;;;;;;5015867;28;19914;-71
2023/11/30 13:29:47;;;;;;;;;;;8.30;1.00;;;;;;5015843;28;20265;-73
2023/11/30 13:32:13;;;;;;;;;;;8.20;1.00;;;;;;5015875;28;19921;-72
2023/11/30 13:34:38;;;;;;;;;;;8.20;1.00;;;;;;5017134;28;20383;-72
2023/11/30 13:37:04;;;;;;;;;;;8.20;1.00;;;;;;5015948;28;19972;-72
2023/11/30 13:39:30;;;;;;;;;;;8.20;1.00;;;;;;5015467;28;20384;-72
2023/11/30 13:41:57;;;;;;;;;;;8.10;1.00;;;;;;5013496;28;19953;-71
2023/11/30 13:44:22;;;;;;;;;;;7.90;1.00;;;;;;5016347;28;19913;-71
2023/11/30 13:46:49;;;;;;;;;;;7.90;1.00;;;;;;5027149;28;19917;-72
2023/11/30 13:49:15;;;;;;;;;;;7.90;1.00;;;;;;5014616;28;19914;-72
2023/11/30 13:51:40;;;;;;;;;;;7.90;1.00;;;;;;5016070;28;19913;-72
2023/11/30 13:54:06;;;;;;;;;;;7.90;1.00;;;;;;5015349;28;19936;-72
2023/11/30 13:56:32;;;;;;;;;;;7.90;1.00;;;;;;5017956;28;19913;-72
2023/11/30 13:58:58;;;;;;;;;;;7.90;1.00;;;;;;5015049;28;19949;-71
2023/11/30 14:01:23;;;;;;;;;;;7.90;1.00;;;;;;5017854;28;19916;-72
2023/11/30 14:03:51;;;;;;;;;;;7.90;1.00;;;;;;5016202;28;19921;-72
2023/11/30 14:06:16;;;;;;;;;;;7.80;1.00;;;;;;5013866;28;20379;-72
2023/11/30 14:08:42;;;;;;;;;;;7.80;1.00;;;;;;5015055;28;19913;-71
2023/11/30 14:11:11;;;;;;;;;;;7.80;1.00;;;;;;5013871;28;19920;-71
2023/11/30 14:13:42;;;;;;;;;;;7.90;1.00;;;;;;5011257;28;19914;-71
2023/11/30 14:16:08;;;;;;;;;;;7.80;1.00;;;;;;5015508;28;19910;-71
2023/11/30 14:18:34;;;;;;;;;;;7.80;1.00;;;;;;5015151;28;19940;-71
2023/11/30 14:20:59;;;;;;;;;;;7.70;1.00;;;;;;5022887;28;19914;-71
2023/11/30 14:23:26;;;;;;;;;;;7.60;1.00;;;;;;5012970;28;19928;-71
2023/11/30 14:25:52;;;;;;;;;;;7.60;1.00;;;;;;5015020;28;19960;-71
2023/11/30 14:28:18;;;;;;;;;;;7.50;1.00;;;;;;5014152;28;19917;-71
2023/11/30 14:30:44;;;;;;;;;;;7.50;1.00;;;;;;5014781;28;19957;-72
2023/11/30 14:33:10;;;;;;;;;;;7.40;1.00;;;;;;5015121;28;20380;-71
2023/11/30 14:35:35;;;;;;;;;;;7.40;1.00;;;;;;5015138;28;19949;-71
2023/11/30 14:38:01;;;;;;;;;;;7.30;1.00;;;;;;5014826;28;19913;-72
2023/11/30 14:40:27;;;;;;;;;;;7.20;1.00;;;;;;5014108;28;19916;-72
2023/11/30 14:42:52;;;;;;;;;;;7.20;1.00;;;;;;5013897;28;19917;-71
2023/11/30 14:45:18;;;;;;;;;;;7.10;1.00;;;;;;5020289;28;20261;-71
2023/11/30 14:47:43;;;;;;;;;;;7.00;1.00;;;;;;5005386;28;19921;-70
2023/11/30 14:56:00;;;;;;;;;;;6.70;1.00;;;;;;5014473;28;20480;-76
2023/11/30 14:58:26;;;;;;;;;;;;;;;;;;5014534;28;20000;-75
2023/11/30 15:03:55;;;;;;;;;;;6.50;1.00;;;;;;5014574;28;20020;-77
2023/11/30 15:06:24;;;;;;;;;;;6.40;1.00;;;;;;5026437;28;19960;-80
2023/11/30 15:08:50;;;;;;;;;;;;;;;;;;5007098;28;19914;-70
2023/11/30 15:11:16;;;;;;;;;;;6.30;1.00;;;;;;5013688;28;19952;-72
2023/11/30 15:13:42;;;;;;;;;;;6.20;1.00;;;;;;5013375;28;19920;-71
2023/11/30 15:16:07;;;;;;;;;;;6.10;1.00;;;;;;5014133;28;19932;-71
2023/11/30 15:18:33;;;;;;;;;;;6.00;1.00;;;;;;5013753;28;19976;-71
2023/11/30 15:20:59;;;;;;;;;;;5.90;1.00;;;;;;5014682;28;19953;-75
2023/11/30 15:23:36;;;;;;;;;;;5.70;1.00;;;;;;5013944;28;19968;-76
2023/11/30 15:26:02;;;;;;;;;;;;;;;;;;5016381;28;19940;-75
2023/11/30 15:28:28;;;;;;;;;;;5.60;1.00;;;;;;5014349;28;19996;-75
2023/11/30 15:30:53;;;;;;;;;;;5.50;1.00;;;;;;5011816;28;20062;-75
2023/11/30 15:33:19;;;;;;;;;;;5.40;1.00;;;;;;5013677;28;19917;-74
2023/11/30 15:35:45;;;;;;;;;;;5.40;1.00;;;;;;5019943;28;19913;-74
2023/11/30 15:38:10;;;;;;;;;;;5.30;1.00;;;;;;5013282;28;19916;-74
2023/11/30 15:40:42;;;;;;;;;;;;;;;;;;5023899;28;20012;-74
2023/11/30 15:43:12;;;;;;;;;;;5.10;1.00;;;;;;5015650;28;19998;-74
2023/11/30 15:45:48;;;;;;;;;;;;;;;;;;5003849;28;19929;-77
2023/11/30 15:51:16;;;;;;;;;;;4.80;1.00;;;;;;5014319;28;19916;-74
2023/11/30 15:53:42;;;;;;;;;;;4.70;1.00;;;;;;5017738;28;20000;-74
2023/11/30 15:56:08;;;;;;;;;;;;;;;;;;5004979;28;19928;-74
2023/11/30 16:02:00;;;;;;;;;;;4.40;1.00;;;;;;5012679;28;19920;-78
2023/11/30 16:04:42;;;;;;;;;;;4.20;1.00;;;;;;5010524;28;19925;-75
2023/11/30 16:07:12;;;;;;;;;;;4.20;1.00;;;;;;5010783;28;19917;-76
2023/11/30 16:12:41;;;;;;;;;;;4.10;1.00;;;;;;4994249;28;19932;-76
2023/11/30 16:15:07;;;;;;;;;;;4.10;1.00;;;;;;5007946;28;20361;-75
2023/11/30 16:17:33;;;;;;;;;;;4.10;1.00;;;;;;5025121;28;20356;-75
2023/11/30 16:20:05;;;;;;;;;;;4.10;1.00;;;;;;5019888;28;19921;-75
2023/11/30 16:22:30;;;;;;;;;;;4.10;1.00;;;;;;5000815;28;19913;-72
2023/11/30 16:24:56;;;;;;;;;;;4.10;1.00;;;;;;5013510;28;19910;-72
2023/11/30 16:27:25;;;;;;;;;;;4.10;1.00;;;;;;5013324;28;19921;-72
2023/11/30 16:29:51;;;;;;;;;;;4.10;1.00;;;;;;5016441;28;19963;-72
2023/11/30 16:32:16;;;;;;;;;;;4.10;1.00;;;;;;5014666;28;19914;-72
2023/11/30 16:34:42;;;;;;;;;;;4.20;1.00;;;;;;5011526;28;19941;-72
2023/11/30 16:43:14;;;;;;;;;;;4.10;1.00;;;;;;5015958;28;19931;-78
2023/11/30 16:45:40;;;;;;;;;;;4.20;1.00;;;;;;5022518;28;20424;-78
2023/11/30 16:48:06;;;;;;;;;;;4.20;1.00;;;;;;5016177;28;19917;-74
2023/11/30 16:50:32;;;;;;;;;;;4.20;1.00;;;;;;5026248;28;19913;-74
2023/11/30 16:52:58;;;;;;;;;;;4.20;1.00;;;;;;5009975;28;19968;-72
2023/11/30 16:55:24;;;;;;;;;;;;;;;;;;5026437;28;19913;-72
2023/11/30 16:57:50;;;;;;;;;;;4.10;1.00;;;;;;5014830;28;19921;-72
2023/11/30 17:00:16;;;;;;;;;;;4.00;1.00;;;;;;5016538;28;19920;-71
2023/11/30 17:02:41;;;;;;;;;;;4.00;1.00;;;;;;5021303;28;19921;-71
2023/11/30 17:05:07;;;;;;;;;;;4.00;1.00;;;;;;5016808;28;19913;-71
2023/11/30 17:07:33;;;;;;;;;;;3.90;1.00;;;;;;5027361;28;19913;-74
2023/11/30 17:09:58;;;;;;;;;;;3.90;1.00;;;;;;5019484;28;19921;-75
2023/11/30 17:12:42;;;;;;;;;;;3.80;1.00;;;;;;5020267;28;19918;-75
2023/11/30 17:15:18;;;;;;;;;;;3.70;1.00;;;;;;5020463;28;19917;-75
2023/11/30 17:17:48;;;;;;;;;;;3.70;1.00;;;;;;5004287;28;19980;-74
2023/11/30 17:20:13;;;;;;;;;;;3.60;1.00;;;;;;5010066;28;19913;-77
2023/11/30 17:22:54;;;;;;;;;;;3.50;1.00;;;;;;5019729;28;19924;-75
2023/11/30 17:25:24;;;;;;;;;;;3.40;1.00;;;;;;5019187;28;19917;-76
2023/11/30 17:30:54;;;;;;;;;;;3.10;1.00;;;;;;5015774;28;19924;-75
2023/11/30 17:33:20;;;;;;;;;;;3.10;1.00;;;;;;5014839;28;19917;-75
2023/11/30 17:35:48;;;;;;;;;;;3.10;1.00;;;;;;5015088;28;19914;-75
2023/11/30 17:38:18;;;;;;;;;;;3.00;1.00;;;;;;5016709;28;20318;-76
2023/11/30 17:41:12;;;;;;;;;;;2.90;1.00;;;;;;5016345;28;19961;-75
2023/11/30 17:43:42;;;;;;;;;;;2.80;1.00;;;;;;5015502;28;20020;-75
2023/11/30 17:49:11;;;;;;;;;;;;;;;;;;5015748;28;19940;-75
2023/11/30 17:52:00;;;;;;;;;;;2.50;1.00;;;;;;5016241;28;20353;-75
2023/11/30 17:54:26;;;;;;;;;;;;;;;;;;5011071;28;19913;-72
2023/11/30 17:56:52;;;;;;;;;;;2.40;1.00;;;;;;5021807;28;20000;-72
2023/11/30 17:59:17;;;;;;;;;;;2.40;1.00;;;;;;5015846;28;20000;-71
2023/11/30 18:01:43;;;;;;;;;;;2.20;1.00;;;;;;5015310;28;19913;-71
2023/11/30 18:04:12;;;;;;;;;;;2.10;1.00;;;;;;5019835;28;19979;-71
2023/11/30 18:06:38;;;;;;;;;;;;;;;;;;5015363;28;19910;-72
2023/11/30 18:09:04;;;;;;;;;;;2.20;1.00;;;;;;5015779;28;19913;-71
2023/11/30 18:11:30;;;;;;;;;;;2.20;1.00;;;;;;5015441;28;19924;-72
2023/11/30 18:14:00;;;;;;;;;;;;;;;;;;5017187;28;19937;-72
2023/11/30 18:16:27;;;;;;;;;;;2.20;1.00;;;;;;5013782;28;19921;-71
2023/11/30 18:18:53;;;;;;;;;;;2.20;1.00;;;;;;4996976;28;19940;-71
2023/11/30 18:21:19;;;;;;;;;;;2.10;1.00;;;;;;5014859;28;20338;-72
2023/11/30 18:23:44;;;;;;;;;;;2.10;1.00;;;;;;5009958;28;19918;-72
2023/11/30 18:26:10;;;;;;;;;;;2.20;1.00;;;;;;5014134;28;19988;-72